Time;durP1;ratioP1;P1;durP2;ratioP2;P2;SDS_P1;SDS_P2;PMS_P1;PMS_P2;Temp;Humidity;BMP_temperature;BMP_pressure;BME280_temperature;BME280_humidity;BME280_pressure;Samples;Min_cycle;Max_cycle;Signal;HPM_P1;HPM_P2
2021/09/26 00:00:52;;;;;;;24.85;15.55;;;;;;;20.03;67.32;100114.84;4993768;28;20034;-91
2021/09/26 00:03:17;;;;;;;25.35;16.15;;;;;;;19.91;67.34;100120.53;4993652;28;20033;-91
2021/09/26 00:05:43;;;;;;;27.60;16.40;;;;;;;19.92;67.64;100114.19;4993282;28;20073;-91
2021/09/26 00:08:08;;;;;;;21.88;14.82;;;;;;;19.92;67.63;100111.53;4994757;28;20036;-92
2021/09/26 00:10:33;;;;;;;28.77;18.35;;;;;;;19.85;67.91;100104.44;5009279;28;20109;-92
2021/09/26 00:12:59;;;;;;;30.63;18.67;;;;;;;19.73;68.19;100091.47;5013684;28;20026;-92
2021/09/26 00:15:26;;;;;;;22.77;16.20;;;;;;;19.93;67.59;100104.41;5013788;28;20029;-92
2021/09/26 00:17:52;;;;;;;29.20;16.92;;;;;;;19.84;67.90;100102.75;5013613;28;20033;-92
2021/09/26 00:20:19;;;;;;;25.52;17.00;;;;;;;19.76;68.44;100095.63;5012559;28;20113;-91
2021/09/26 00:22:45;;;;;;;27.85;17.52;;;;;;;19.96;67.51;100086.22;5013744;28;20026;-92
2021/09/26 00:25:11;;;;;;;27.83;16.73;;;;;;;20.05;67.41;100089.69;5013403;28;20034;-92
2021/09/26 00:27:37;;;;;;;21.20;14.55;;;;;;;20.07;67.23;100093.00;5013562;28;20031;-91
2021/09/26 00:30:08;;;;;;;22.75;16.27;;;;;;;20.04;67.21;100082.69;5012092;28;20113;-91
2021/09/26 00:32:34;;;;;;;23.85;16.83;;;;;;;19.97;67.07;100084.38;4995708;28;20358;-92
2021/09/26 00:34:59;;;;;;;23.85;14.85;;;;;;;19.92;67.13;100076.91;4993903;28;20030;-92
2021/09/26 00:37:25;;;;;;;21.00;15.15;;;;;;;19.93;66.99;100075.09;4992590;28;20392;-92
2021/09/26 00:39:50;;;;;;;20.83;15.15;;;;;;;19.84;67.20;100068.94;4992655;28;20133;-92
2021/09/26 00:42:16;;;;;;;20.13;14.68;;;;;;;19.79;67.11;100074.78;4993919;28;20022;-92
2021/09/26 00:44:42;;;;;;;22.17;14.90;;;;;;;19.75;67.23;100068.16;4993514;28;20029;-92
2021/09/26 00:47:07;;;;;;;20.77;14.27;;;;;;;19.70;67.18;100065.13;4992766;28;20608;-92
2021/09/26 00:49:33;;;;;;;22.92;15.23;;;;;;;19.66;67.16;100063.81;4992532;28;20035;-92
2021/09/26 00:51:58;;;;;;;22.85;14.77;;;;;;;19.60;67.20;100056.53;4993660;28;20362;-92
2021/09/26 00:54:24;;;;;;;23.52;14.75;;;;;;;19.58;67.25;100054.03;4993534;28;20699;-93
2021/09/26 00:56:50;;;;;;;21.25;14.95;;;;;;;19.25;67.93;100055.94;4993441;28;20507;-92
2021/09/26 00:59:17;;;;;;;27.20;16.42;;;;;;;19.03;68.17;100047.63;4998046;28;20021;-91
2021/09/26 01:01:42;;;;;;;24.25;16.02;;;;;;;18.85;68.73;100056.81;5013190;28;20040;-92
2021/09/26 01:04:08;;;;;;;24.95;16.08;;;;;;;18.88;69.20;100061.78;5013317;28;20021;-93
2021/09/26 01:07:10;;;;;;;22.88;15.70;;;;;;;18.99;68.93;100062.28;5012762;28;20032;-92
2021/09/26 01:09:44;;;;;;;23.58;15.88;;;;;;;19.01;68.78;100060.28;5012806;28;20021;-91
2021/09/26 01:12:23;;;;;;;25.75;15.90;;;;;;;19.21;68.08;100063.44;5012957;28;20029;-92
2021/09/26 01:15:04;;;;;;;23.10;15.13;;;;;;;19.24;68.22;100072.91;5001071;28;20181;-91
2021/09/26 01:17:46;;;;;;;28.73;17.50;;;;;;;19.22;67.87;100067.75;4993020;28;20048;-91
2021/09/26 01:20:30;;;;;;;19.95;13.88;;;;;;;19.37;68.10;100070.56;4993164;28;20516;-91
2021/09/26 01:23:30;;;;;;;26.98;17.08;;;;;;;19.40;68.27;100066.72;4993032;28;20374;-91
2021/09/26 01:26:08;;;;;;;29.25;18.00;;;;;;;19.47;68.28;100069.53;4991535;28;20037;-91
2021/09/26 01:29:09;;;;;;;28.80;17.25;;;;;;;19.49;68.64;100070.19;4994680;28;20022;-92
2021/09/26 01:31:39;;;;;;;26.38;16.95;;;;;;;19.48;68.67;100060.56;4988428;28;20046;-92
2021/09/26 01:34:10;;;;;;;23.45;16.33;;;;;;;19.56;68.87;100069.34;4992818;28;20030;-92
2021/09/26 01:36:38;;;;;;;32.03;19.42;;;;;;;19.57;68.88;100065.69;4992726;28;20058;-91
2021/09/26 01:39:27;;;;;;;35.88;20.20;;;;;;;19.61;69.10;100063.53;4992646;28;20036;-91
2021/09/26 01:42:01;;;;;;;28.42;18.92;;;;;;;19.64;69.00;100065.00;4992248;28;20027;-92
2021/09/26 01:44:33;;;;;;;31.65;20.02;;;;;;;19.68;69.38;100071.66;4992743;28;20038;-92
2021/09/26 01:47:02;;;;;;;37.55;21.63;;;;;;;19.66;69.14;100058.50;5009081;28;20537;-91
2021/09/26 01:49:35;;;;;;;36.72;21.63;;;;;;;19.83;68.94;100066.44;4999493;28;20042;-91
2021/09/26 01:52:01;;;;;;;32.20;20.10;;;;;;;19.72;69.19;100065.81;4992529;28;20022;-91
2021/09/26 01:54:27;;;;;;;31.77;19.38;;;;;;;19.78;68.91;100061.63;4992519;28;20528;-91
2021/09/26 01:56:55;;;;;;;35.20;21.50;;;;;;;19.79;69.01;100063.31;4992525;28;20033;-91
2021/09/26 01:59:23;;;;;;;35.92;20.30;;;;;;;19.79;68.74;100064.13;4992609;28;20033;-91
2021/09/26 02:01:49;;;;;;;36.28;21.60;;;;;;;19.79;68.83;100063.31;4991128;28;20081;-92
2021/09/26 02:04:19;;;;;;;38.47;22.27;;;;;;;19.86;68.48;100055.44;5004927;28;20033;-92
2021/09/26 02:06:45;;;;;;;42.35;22.77;;;;;;;19.79;68.82;100050.81;5011916;28;20446;-91
2021/09/26 02:09:12;;;;;;;33.67;20.58;;;;;;;19.87;68.75;100049.97;5011847;28;20018;-92
2021/09/26 02:11:39;;;;;;;30.90;19.88;;;;;;;19.91;68.32;100050.44;5012047;28;20108;-92
2021/09/26 02:14:06;;;;;;;29.25;18.33;;;;;;;19.86;68.40;100058.94;5010473;28;20081;-91
2021/09/26 02:16:34;;;;;;;31.33;20.48;;;;;;;19.86;68.47;100053.59;5011585;28;20032;-92
2021/09/26 02:19:02;;;;;;;27.48;18.38;;;;;;;19.90;68.53;100049.59;4998665;28;20033;-92
2021/09/26 02:21:29;;;;;;;33.45;21.10;;;;;;;19.88;68.66;100050.78;4990958;28;20022;-92
2021/09/26 02:23:55;;;;;;;36.50;20.90;;;;;;;19.89;68.54;100045.28;4992168;28;20080;-91
2021/09/26 02:26:21;;;;;;;33.97;21.40;;;;;;;19.89;68.25;100042.63;4996067;28;20030;-92
2021/09/26 02:28:47;;;;;;;30.50;19.27;;;;;;;19.86;68.40;100036.81;5011620;28;20049;-91
2021/09/26 02:31:13;;;;;;;34.25;21.13;;;;;;;19.87;68.35;100028.66;5011856;28;20022;-91
2021/09/26 02:33:40;;;;;;;37.33;21.92;;;;;;;19.96;68.35;100037.41;5011700;28;20189;-91
2021/09/26 02:36:07;;;;;;;34.80;22.20;;;;;;;19.89;68.44;100031.16;5010357;28;20030;-90
2021/09/26 02:38:35;;;;;;;31.38;20.00;;;;;;;19.84;68.62;100023.66;5005176;28;20031;-91
2021/09/26 02:41:13;;;;;;;32.78;20.23;;;;;;;19.97;68.52;100031.09;4994470;28;20275;-91
2021/09/26 02:43:54;;;;;;;27.30;17.58;;;;;;;20.00;68.43;100023.59;4992047;28;20030;-92
2021/09/26 02:46:29;;;;;;;32.67;20.50;;;;;;;19.79;68.97;100020.69;4992304;28;20058;-92
2021/09/26 02:48:56;;;;;;;29.40;19.40;;;;;;;19.88;68.61;100024.13;4990741;28;20503;-92
2021/09/26 02:51:23;;;;;;;27.58;18.23;;;;;;;19.95;68.85;100020.59;4992042;28;20019;-91
2021/09/26 02:53:51;;;;;;;28.33;18.65;;;;;;;19.97;68.52;100020.44;4992521;28;20396;-92
2021/09/26 02:56:18;;;;;;;27.35;18.58;;;;;;;19.89;68.24;100009.81;5008349;28;20395;-91
2021/09/26 02:58:43;;;;;;;29.30;18.40;;;;;;;19.96;68.53;100014.28;5015182;28;20041;-91
2021/09/26 03:01:09;;;;;;;27.98;18.92;;;;;;;19.97;68.66;100009.78;5015192;28;20022;-91
2021/09/26 03:03:34;;;;;;;25.63;18.00;;;;;;;20.04;68.45;100013.38;5015272;28;20499;-91
2021/09/26 03:06:00;;;;;;;33.78;21.13;;;;;;;19.99;68.32;100007.78;5014985;28;20058;-91
2021/09/26 03:08:25;;;;;;;34.55;21.75;;;;;;;19.90;68.28;100004.31;5015011;28;20477;-91
2021/09/26 03:10:54;;;;;;;28.58;19.40;;;;;;;19.90;68.81;100011.47;5001579;28;20125;-91
2021/09/26 03:13:19;;;;;;;32.17;19.88;;;;;;;19.89;68.85;100010.66;5011169;28;20128;-92
2021/09/26 03:15:45;;;;;;;32.92;21.45;;;;;;;19.96;68.28;100000.13;5014778;28;20152;-92
2021/09/26 03:18:10;;;;;;;32.70;21.58;;;;;;;20.01;68.14;100003.09;5014916;28;20014;-91
2021/09/26 03:20:36;;;;;;;30.27;19.88;;;;;;;19.99;68.32;99991.78;5013522;28;20061;-92
2021/09/26 03:23:02;;;;;;;32.47;20.65;;;;;;;20.07;68.11;99991.72;5013339;28;20025;-91
2021/09/26 03:25:27;;;;;;;30.95;20.52;;;;;;;19.91;68.08;99976.66;5013332;28;20022;-92
2021/09/26 03:27:52;;;;;;;32.65;20.92;;;;;;;19.97;68.22;99991.13;4998938;28;20022;-91
2021/09/26 03:30:18;;;;;;;31.45;19.70;;;;;;;19.97;68.08;99986.63;4995108;28;20018;-92
2021/09/26 03:32:44;;;;;;;31.23;20.83;;;;;;;19.94;68.15;99980.81;4993761;28;20428;-92
2021/09/26 03:35:11;;;;;;;37.45;22.58;;;;;;;20.08;67.53;99977.38;4994935;28;20066;-92
2021/09/26 03:37:37;;;;;;;37.78;23.40;;;;;;;20.04;67.68;99975.25;4994794;28;20033;-91
2021/09/26 03:40:05;;;;;;;38.70;23.33;;;;;;;20.00;67.62;99986.28;4994913;28;20030;-92
2021/09/26 03:42:31;;;;;;;37.15;23.42;;;;;;;20.08;67.74;99982.72;5007833;28;20041;-91
2021/09/26 03:44:56;;;;;;;33.40;22.15;;;;;;;20.00;67.87;99988.94;5014275;28;20021;-91
2021/09/26 03:47:21;;;;;;;33.97;22.15;;;;;;;19.95;67.98;99982.47;5013094;28;20025;-92
2021/09/26 03:49:47;;;;;;;40.10;24.35;;;;;;;19.86;68.13;99984.34;5013102;28;20041;-91
2021/09/26 03:52:13;;;;;;;38.08;24.50;;;;;;;19.85;67.96;99981.88;5013034;28;20025;-92
2021/09/26 03:54:39;;;;;;;34.75;22.80;;;;;;;19.78;68.10;99979.06;5014212;28;20057;-92
2021/09/26 03:57:04;;;;;;;39.67;22.52;;;;;;;19.71;67.82;99986.06;5013435;28;20068;-92
2021/09/26 03:59:30;;;;;;;35.35;23.17;;;;;;;19.62;67.82;99979.94;4996914;28;20038;-92
2021/09/26 04:01:55;;;;;;;35.97;22.98;;;;;;;19.51;67.96;99969.66;4993305;28;20030;-91
2021/09/26 04:04:21;;;;;;;35.63;23.00;;;;;;;19.44;68.04;99977.53;4994263;28;20113;-92
2021/09/26 04:06:46;;;;;;;35.05;23.70;;;;;;;19.32;68.67;99982.38;4994204;28;20073;-92
2021/09/26 04:09:12;;;;;;;37.53;23.85;;;;;;;19.27;68.54;99984.72;4994376;28;20029;-92
2021/09/26 04:11:38;;;;;;;36.17;22.65;;;;;;;19.26;68.98;99971.59;4993111;28;20062;-91
2021/09/26 04:14:04;;;;;;;35.05;21.33;;;;;;;19.26;69.14;99984.91;5007445;28;20083;-92
2021/09/26 04:16:31;;;;;;;38.92;23.77;;;;;;;19.24;69.38;99987.75;5012618;28;20109;-91
2021/09/26 04:18:56;;;;;;;36.65;22.38;;;;;;;19.22;69.65;99982.59;5013751;28;20018;-91
2021/09/26 04:21:22;;;;;;;33.03;20.55;;;;;;;19.28;69.72;99978.41;5013863;28;20037;-92
2021/09/26 04:23:48;;;;;;;37.22;22.25;;;;;;;19.34;69.99;99979.56;5013677;28;20026;-91
2021/09/26 04:26:15;;;;;;;45.05;26.92;;;;;;;19.39;69.78;99983.38;5013434;28;20388;-91
2021/09/26 04:28:41;;;;;;;41.70;24.77;;;;;;;19.41;69.62;99978.72;4998131;28;20169;-92
2021/09/26 04:31:07;;;;;;;38.13;23.15;;;;;;;19.39;69.77;99980.72;4994074;28;20097;-91
2021/09/26 04:33:32;;;;;;;38.17;24.67;;;;;;;19.31;70.19;99964.78;4993817;28;20026;-91
2021/09/26 04:35:58;;;;;;;33.88;22.23;;;;;;;19.43;70.10;99983.84;4993886;28;20416;-91
2021/09/26 04:38:24;;;;;;;34.42;22.65;;;;;;;19.42;70.08;99980.34;4993909;28;20026;-92
2021/09/26 04:40:49;;;;;;;35.88;22.13;;;;;;;19.44;70.15;99987.34;4993750;28;20098;-91
2021/09/26 04:43:14;;;;;;;42.00;25.40;;;;;;;19.49;69.29;99995.63;5004365;28;20040;-92
2021/09/26 04:45:40;;;;;;;38.13;23.38;;;;;;;19.57;69.74;99985.81;5013025;28;20040;-91
2021/09/26 04:48:05;;;;;;;41.88;25.75;;;;;;;19.63;69.50;99992.28;5011781;28;20120;-91
2021/09/26 04:50:32;;;;;;;42.08;26.67;;;;;;;19.53;69.24;99983.63;5013217;28;20028;-92
2021/09/26 04:52:58;;;;;;;43.80;26.25;;;;;;;19.47;69.63;99979.84;5013460;28;20022;-91
2021/09/26 04:55:25;;;;;;;41.22;25.35;;;;;;;19.53;69.16;99988.97;5013252;28;20057;-92
2021/09/26 04:57:51;;;;;;;38.30;23.20;;;;;;;19.56;69.09;99988.63;5001857;28;20480;-91
2021/09/26 05:00:17;;;;;;;43.13;26.15;;;;;;;19.52;68.73;99989.97;5008113;28;20061;-92
2021/09/26 05:02:43;;;;;;;41.20;24.73;;;;;;;19.45;68.66;99996.97;5013044;28;20480;-91
2021/09/26 05:05:08;;;;;;;40.53;24.42;;;;;;;19.45;69.19;100002.31;5013406;28;20080;-92
2021/09/26 05:07:34;;;;;;;42.63;26.27;;;;;;;19.40;69.48;99995.66;5012994;28;20022;-92
2021/09/26 05:09:59;;;;;;;42.95;26.52;;;;;;;19.36;69.34;100001.53;5012792;28;20034;-91
2021/09/26 05:12:24;;;;;;;45.20;26.73;;;;;;;19.39;69.15;100004.66;5013042;28;20496;-92
2021/09/26 05:14:50;;;;;;;40.95;26.48;;;;;;;19.35;69.29;99999.84;4999462;28;20408;-92
2021/09/26 05:17:16;;;;;;;41.03;25.65;;;;;;;19.29;69.08;99998.69;4990982;28;20026;-91
2021/09/26 05:19:45;;;;;;;40.83;25.73;;;;;;;19.31;69.45;99999.38;4991829;28;20034;-91
2021/09/26 05:22:11;;;;;;;37.88;24.45;;;;;;;19.34;68.94;100008.84;4993231;28;20105;-92
2021/09/26 05:24:36;;;;;;;42.88;26.30;;;;;;;19.19;69.23;99993.59;4992975;28;20114;-91
2021/09/26 05:27:03;;;;;;;37.28;23.90;;;;;;;19.16;69.33;100009.88;4992944;28;20026;-91
2021/09/26 05:29:28;;;;;;;37.67;24.48;;;;;;;19.02;69.39;99998.09;5004725;28;20033;-92
2021/09/26 05:31:54;;;;;;;40.28;24.65;;;;;;;18.97;69.09;99995.09;5011298;28;20025;-91
2021/09/26 05:34:19;;;;;;;37.63;24.15;;;;;;;19.00;69.31;99994.78;5011391;28;20092;-92
2021/09/26 05:36:45;;;;;;;39.40;24.67;;;;;;;18.90;69.05;99993.28;5012631;28;20036;-91
2021/09/26 05:39:10;;;;;;;39.75;24.73;;;;;;;18.87;69.42;99996.28;5012435;28;20503;-91
2021/09/26 05:41:36;;;;;;;36.85;22.80;;;;;;;18.85;69.41;99988.47;5012248;28;20093;-91
2021/09/26 05:44:01;;;;;;;42.92;24.88;;;;;;;18.81;69.56;100000.44;5001544;28;20038;-91
2021/09/26 05:46:27;;;;;;;39.83;25.25;;;;;;;18.72;69.70;99996.09;4992763;28;20033;-91
2021/09/26 05:48:52;;;;;;;42.40;24.30;;;;;;;18.71;69.63;99997.94;4992687;28;20641;-91
2021/09/26 05:51:18;;;;;;;37.38;23.23;;;;;;;18.68;69.53;100005.41;4992512;28;20022;-91
2021/09/26 05:53:43;;;;;;;39.33;24.48;;;;;;;18.58;69.89;100006.44;4994762;28;20080;-91
2021/09/26 05:56:08;;;;;;;45.25;27.65;;;;;;;18.60;70.26;100004.44;4998097;28;20023;-91
2021/09/26 05:58:34;;;;;;;42.55;25.77;;;;;;;18.65;70.18;100019.06;5000485;28;20237;-91
2021/09/26 06:00:59;;;;;;;41.13;24.67;;;;;;;18.52;70.05;100009.75;4999023;28;20066;-92
2021/09/26 06:03:25;;;;;;;41.67;25.33;;;;;;;18.55;70.40;100009.41;4992673;28;20026;-91
2021/09/26 06:05:50;;;;;;;47.38;26.65;;;;;;;18.69;69.94;100015.06;4991071;28;20026;-91
2021/09/26 06:08:16;;;;;;;47.60;28.58;;;;;;;18.61;70.35;100003.41;4993450;28;20033;-92
2021/09/26 06:10:41;;;;;;;41.65;26.83;;;;;;;18.70;70.58;100008.72;4992380;28;20030;-91
2021/09/26 06:13:06;;;;;;;46.53;26.45;;;;;;;18.71;70.56;100010.41;4992304;28;20469;-91
2021/09/26 06:15:33;;;;;;;40.83;26.23;;;;;;;18.70;70.33;100020.22;4992475;28;20026;-92
2021/09/26 06:17:58;;;;;;;42.30;26.63;;;;;;;18.66;70.51;100029.53;4992250;28;20026;-92
2021/09/26 06:20:24;;;;;;;37.35;23.42;;;;;;;18.70;70.70;100030.00;4992251;28;20026;-91
2021/09/26 06:22:50;;;;;;;33.03;22.60;;;;;;;18.71;70.62;100026.38;5004893;28;20045;-91
2021/09/26 06:25:16;;;;;;;37.47;22.95;;;;;;;18.77;70.63;100033.69;5002935;28;20018;-91
2021/09/26 06:27:41;;;;;;;42.80;23.95;;;;;;;18.78;70.82;100024.72;4996266;28;20034;-91
2021/09/26 06:30:07;;;;;;;35.75;22.50;;;;;;;18.81;70.59;100037.69;4997479;28;20496;-92
2021/09/26 06:32:34;;;;;;;35.15;23.02;;;;;;;18.88;70.27;100038.69;5011739;28;20239;-92
2021/09/26 06:35:01;;;;;;;39.00;22.40;;;;;;;18.87;70.46;100022.91;5008955;28;20026;-90
2021/09/26 06:37:28;;;;;;;36.63;24.50;;;;;;;18.91;70.20;100038.34;5004345;28;20022;-91
2021/09/26 06:39:54;;;;;;;37.92;23.27;;;;;;;18.91;70.08;100033.03;5015529;28;20388;-90
2021/09/26 06:42:20;;;;;;;37.90;23.83;;;;;;;18.91;70.28;100041.00;5007474;28;20022;-92
2021/09/26 06:44:46;;;;;;;33.92;22.15;;;;;;;18.94;70.24;100048.66;5013541;28;20127;-92
2021/09/26 06:47:12;;;;;;;34.60;22.95;;;;;;;18.90;70.41;100046.50;5004347;28;20021;-91
2021/09/26 06:49:37;;;;;;;36.35;24.23;;;;;;;18.96;70.14;100056.50;5008453;28;20423;-92
2021/09/26 06:52:03;;;;;;;38.58;24.13;;;;;;;18.92;70.21;100060.47;5006877;28;20038;-93
2021/09/26 06:54:28;;;;;;;42.90;24.35;;;;;;;19.08;69.44;100062.31;5009048;28;20573;-91
2021/09/26 06:56:54;;;;;;;34.58;23.63;;;;;;;18.94;69.30;100058.47;5007608;28;20021;-91
2021/09/26 06:59:19;;;;;;;36.65;24.58;;;;;;;18.92;69.48;100061.31;5006802;28;20387;-91
2021/09/26 07:01:44;;;;;;;39.65;24.10;;;;;;;18.95;69.68;100055.63;5010701;28;20060;-92
2021/09/26 07:04:10;;;;;;;30.58;21.33;;;;;;;19.11;69.61;100069.94;5003774;28;20037;-91
2021/09/26 07:06:35;;;;;;;34.47;22.55;;;;;;;19.16;69.22;100075.59;5003551;28;20045;-92
2021/09/26 07:09:01;;;;;;;37.08;23.50;;;;;;;19.19;69.08;100072.56;5008441;28;20029;-92
2021/09/26 07:11:26;;;;;;;32.45;20.52;;;;;;;19.38;69.25;100076.72;5008697;28;20030;-92
2021/09/26 07:13:52;;;;;;;31.88;21.73;;;;;;;19.42;68.05;100076.19;5011874;28;20033;-91
2021/09/26 07:16:17;;;;;;;39.97;24.30;;;;;;;19.66;68.26;100078.97;5008666;28;20022;-92
2021/09/26 07:18:43;;;;;;;30.15;20.17;;;;;;;19.86;67.31;100072.25;5008429;28;20332;-92
2021/09/26 07:21:11;;;;;;;27.95;17.75;;;;;;;19.94;67.00;100063.41;5005867;28;20027;-92
2021/09/26 07:23:37;;;;;;;30.10;19.77;;;;;;;19.75;66.43;100070.81;5008816;28;20034;-91
2021/09/26 07:26:02;;;;;;;29.67;20.38;;;;;;;19.88;66.31;100061.44;5010960;28;20104;-92
2021/09/26 07:28:28;;;;;;;34.55;21.75;;;;;;;19.96;66.10;100067.59;5008081;28;20420;-91
2021/09/26 07:30:53;;;;;;;30.73;19.67;;;;;;;20.08;65.66;100064.50;5008609;28;20439;-91
2021/09/26 07:33:18;;;;;;;25.38;18.23;;;;;;;20.23;65.42;100068.09;5005624;28;20022;-92
2021/09/26 07:35:45;;;;;;;29.70;19.80;;;;;;;19.65;65.87;100075.50;5008083;28;20539;-92
2021/09/26 07:38:12;;;;;;;26.17;18.73;;;;;;;19.96;65.92;100069.38;5010007;28;20522;-92
2021/09/26 07:40:37;;;;;;;23.35;15.43;;;;;;;20.23;65.27;100069.94;5000783;28;20018;-92
2021/09/26 07:43:02;;;;;;;29.40;18.27;;;;;;;20.20;65.54;100063.09;5011036;28;20034;-92
2021/09/26 07:45:28;;;;;;;26.60;18.88;;;;;;;19.99;65.75;100064.56;5000402;28;20126;-92
2021/09/26 07:47:53;;;;;;;22.05;15.43;;;;;;;20.30;65.54;100076.22;5004693;28;20037;-92
2021/09/26 07:50:24;;;;;;;28.52;17.75;;;;;;;20.23;65.54;100088.59;5014254;28;20029;-91
2021/09/26 07:52:49;;;;;;;29.05;16.23;;;;;;;20.13;65.61;100089.63;5003597;28;20045;-90
2021/09/26 07:55:15;;;;;;;21.65;15.10;;;;;;;20.18;64.86;100089.97;4994640;28;20030;-90
2021/09/26 07:57:40;;;;;;;18.52;13.63;;;;;;;20.26;64.38;100093.56;4994564;28;20033;-90
2021/09/26 08:00:06;;;;;;;17.73;12.75;;;;;;;20.34;64.69;100093.50;4999974;28;20129;-92
2021/09/26 08:02:32;;;;;;;21.35;12.38;;;;;;;20.39;64.11;100096.50;4994395;28;20027;-91
2021/09/26 08:04:57;;;;;;;15.93;12.30;;;;;;;20.10;65.13;100102.47;4994239;28;20443;-91
2021/09/26 08:07:22;;;;;;;18.92;12.48;;;;;;;19.78;64.98;100110.41;5007690;28;20065;-91
2021/09/26 08:09:48;;;;;;;16.65;12.30;;;;;;;20.03;63.82;100101.53;4996419;28;20037;-91
2021/09/26 08:12:13;;;;;;;18.60;12.82;;;;;;;20.58;63.64;100113.91;5008604;28;20015;-91
2021/09/26 08:14:39;;;;;;;16.92;11.65;;;;;;;21.52;62.06;100105.66;4994073;28;20037;-90
2021/09/26 08:17:04;;;;;;;15.88;10.82;;;;;;;22.39;58.02;100112.97;4993955;28;20105;-90
2021/09/26 08:19:30;;;;;;;15.02;10.75;;;;;;;22.46;56.94;100115.75;4993978;28;20072;-91
2021/09/26 08:21:55;;;;;;;16.90;11.00;;;;;;;21.22;59.24;100110.91;5000469;28;20038;-91
2021/09/26 08:24:21;;;;;;;16.98;10.57;;;;;;;21.75;58.31;100119.75;5007513;28;20018;-91
2021/09/26 08:26:46;;;;;;;11.05;9.35;;;;;;;21.70;58.00;100116.81;4995926;28;20076;-92
2021/09/26 08:29:11;;;;;;;14.63;9.63;;;;;;;21.36;57.88;100122.63;5013911;28;20037;-91
2021/09/26 08:31:37;;;;;;;13.00;10.05;;;;;;;21.13;58.64;100131.53;5009194;28;20018;-91
2021/09/26 08:34:02;;;;;;;14.68;10.05;;;;;;;20.89;60.13;100127.22;5003422;28;20089;-89
2021/09/26 08:36:28;;;;;;;13.68;10.32;;;;;;;21.04;59.10;100118.44;4993627;28;20030;-92
2021/09/26 08:38:54;;;;;;;14.50;10.05;;;;;;;20.67;59.99;100126.19;4994023;28;20018;-91
2021/09/26 08:41:19;;;;;;;14.68;9.80;;;;;;;20.44;60.59;100128.81;4992792;28;20117;-90
2021/09/26 08:43:49;;;;;;;15.93;9.40;;;;;;;20.37;61.41;100127.84;4996511;28;20419;-91
2021/09/26 08:46:16;;;;;;;12.40;9.43;;;;;;;20.56;60.31;100124.72;5013636;28;20160;-91
2021/09/26 08:48:42;;;;;;;11.23;8.02;;;;;;;20.72;59.51;100129.16;5012162;28;20029;-90
2021/09/26 08:51:11;;;;;;;11.05;8.68;;;;;;;20.50;60.25;100128.09;5011927;28;20018;-91
2021/09/26 08:53:37;;;;;;;11.32;9.05;;;;;;;20.25;61.06;100126.56;5010381;28;20189;-91
2021/09/26 08:56:03;;;;;;;10.70;8.65;;;;;;;21.36;59.52;100130.66;4993444;28;20053;-90
2021/09/26 08:58:29;;;;;;;10.40;8.13;;;;;;;22.68;56.18;100138.00;5003480;28;20109;-90
2021/09/26 09:00:54;;;;;;;9.68;7.43;;;;;;;23.80;53.28;100131.13;5002334;28;20038;-91
2021/09/26 09:03:20;;;;;;;10.32;6.72;;;;;;;24.90;50.02;100130.09;4999275;28;20030;-91
2021/09/26 09:05:51;;;;;;;7.18;6.22;;;;;;;24.89;50.07;100125.75;5002585;28;20045;-91
2021/09/26 09:08:19;;;;;;;8.95;7.03;;;;;;;24.52;50.05;100121.75;5005892;28;20018;-90
2021/09/26 09:10:51;;;;;;;7.85;6.30;;;;;;;25.24;50.44;100125.59;4995006;28;20033;-90
2021/09/26 09:13:26;;;;;;;8.30;5.80;;;;;;;26.63;46.26;100117.34;5008489;28;21147;-92
2021/09/26 09:15:59;;;;;;;7.20;5.88;;;;;;;25.86;46.20;100119.91;4999176;28;20027;-91
2021/09/26 09:18:46;;;;;;;8.05;5.43;;;;;;;25.64;47.41;100120.16;4993184;28;20038;-91
2021/09/26 09:21:19;;;;;;;7.60;5.47;;;;;;;25.79;47.02;100122.63;4997430;28;20034;-91
2021/09/26 09:23:49;;;;;;;6.72;4.85;;;;;;;26.67;45.89;100123.94;5011631;28;20374;-92
2021/09/26 09:26:15;;;;;;;6.20;5.07;;;;;;;27.03;43.41;100125.13;4996711;28;20053;-92
2021/09/26 09:28:41;;;;;;;6.93;4.63;;;;;;;27.60;42.75;100128.56;4997669;28;20022;-92
2021/09/26 09:31:08;;;;;;;7.95;5.07;;;;;;;28.29;41.28;100120.34;5003672;28;20026;-92
2021/09/26 09:33:40;;;;;;;5.45;4.60;;;;;;;29.24;40.96;100127.69;4992528;28;20492;-92
2021/09/26 09:36:21;;;;;;;4.38;3.97;;;;;;;29.76;39.05;100131.56;5002764;28;20124;-92
2021/09/26 09:38:49;;;;;;;5.22;4.00;;;;;;;29.07;40.25;100141.06;4997735;28;20057;-91
2021/09/26 09:41:34;;;;;;;4.53;3.78;;;;;;;30.49;38.02;100137.41;5002564;28;20093;-92
2021/09/26 09:44:00;;;;;;;8.85;4.00;;;;;;;30.36;37.71;100136.63;5002527;28;20037;-87
2021/09/26 09:46:32;;;;;;;4.78;3.50;;;;;;;30.43;37.86;100131.91;4995309;28;20097;-87
2021/09/26 09:49:09;;;;;;;4.25;3.42;;;;;;;29.94;37.95;100125.19;5006860;28;20036;-87
2021/09/26 09:51:37;;;;;;;3.88;3.47;;;;;;;31.15;36.00;100129.63;4997176;28;20041;-87
2021/09/26 09:54:04;;;;;;;3.83;3.05;;;;;;;31.21;35.08;100123.22;4992181;28;20030;-86
2021/09/26 09:56:40;;;;;;;4.90;3.05;;;;;;;31.60;34.79;100118.66;5002070;28;20430;-87
2021/09/26 09:59:05;;;;;;;5.03;3.28;;;;;;;32.03;34.11;100118.13;4999788;28;20030;-86
2021/09/26 10:01:34;;;;;;;4.20;3.60;;;;;;;32.09;34.12;100123.38;5004956;28;20499;-87
2021/09/26 10:04:01;;;;;;;3.25;2.80;;;;;;;31.49;34.76;100124.19;4991865;28;20038;-87
2021/09/26 10:06:37;;;;;;;3.85;3.22;;;;;;;31.87;33.78;100122.53;5000456;28;20036;-87
2021/09/26 10:09:02;;;;;;;6.18;3.20;;;;;;;31.53;34.70;100120.72;4993145;28;20033;-87
2021/09/26 10:11:29;;;;;;;3.83;2.88;;;;;;;31.72;34.65;100120.44;5003702;28;20022;-87
2021/09/26 10:13:57;;;;;;;3.42;2.97;;;;;;;30.94;36.20;100117.63;5000413;28;20109;-87
2021/09/26 10:16:23;;;;;;;5.78;2.05;;;;;;;32.28;33.72;100120.31;5004383;28;20458;-87
2021/09/26 10:18:49;;;;;;;6.20;3.15;;;;;;;31.88;33.94;100122.28;4997801;28;20113;-87
2021/09/26 10:21:14;;;;;;;4.50;3.20;;;;;;;32.08;33.44;100126.34;5001767;28;20076;-87
2021/09/26 10:23:42;;;;;;;4.13;2.38;;;;;;;32.42;33.70;100122.34;4994394;28;20117;-86
2021/09/26 10:26:09;;;;;;;4.63;2.22;;;;;;;32.05;34.02;100115.97;5000817;28;20034;-87
2021/09/26 10:28:35;;;;;;;4.68;2.00;;;;;;;32.91;32.17;100124.22;5003248;28;20093;-89
2021/09/26 10:31:03;;;;;;;3.53;1.70;;;;;;;33.33;31.04;100122.63;5015589;28;20038;-87
2021/09/26 10:33:30;;;;;;;3.13;2.10;;;;;;;32.78;31.63;100125.47;5010509;28;20081;-88
2021/09/26 10:35:57;;;;;;;3.22;2.25;;;;;;;32.21;32.78;100120.53;5006681;28;20100;-88
2021/09/26 10:38:23;;;;;;;2.38;2.13;;;;;;;31.86;32.57;100124.41;5008183;28;20037;-88
2021/09/26 10:40:49;;;;;;;3.03;2.13;;;;;;;32.48;32.30;100119.72;5000845;28;20101;-88
2021/09/26 10:43:27;;;;;;;3.85;2.75;;;;;;;31.92;33.38;100122.59;4998953;28;20473;-88
2021/09/26 10:46:23;;;;;;;2.50;2.30;;;;;;;33.14;31.55;100116.81;5010579;28;20037;-88
2021/09/26 10:49:09;;;;;;;2.97;2.65;;;;;;;32.21;33.27;100107.75;4996996;28;20081;-88
2021/09/26 10:51:42;;;;;;;3.53;2.45;;;;;;;32.80;31.93;100126.03;5001787;28;20484;-87
2021/09/26 10:54:31;;;;;;;3.28;2.50;;;;;;;32.84;32.00;100122.78;5006808;28;20034;-87
2021/09/26 10:57:03;;;;;;;5.75;2.65;;;;;;;32.26;32.34;100117.84;5005927;28;20023;-88
2021/09/26 10:59:38;;;;;;;6.97;3.53;;;;;;;30.93;33.72;100119.53;5014514;28;20061;-87
2021/09/26 11:02:22;;;;;;;39.55;5.85;;;;;;;29.96;36.13;100128.50;5022068;28;20093;-87
2021/09/26 11:04:55;;;;;;;6.82;2.80;;;;;;;30.80;34.84;100117.91;5014977;28;20030;-89
2021/09/26 11:07:23;;;;;;;3.80;3.20;;;;;;;29.66;36.53;100113.19;5017118;28;20026;-87
2021/09/26 11:09:55;;;;;;;5.70;2.53;;;;;;;31.65;34.36;100117.91;5019289;28;20109;-86
2021/09/26 11:12:35;;;;;;;4.28;3.25;;;;;;;31.63;33.21;100107.28;5019845;28;20078;-88
2021/09/26 11:15:13;;;;;;;4.68;3.22;;;;;;;31.01;34.84;100099.31;5019714;28;20042;-86
2021/09/26 11:17:45;;;;;;;5.13;2.60;;;;;;;31.18;35.56;100099.28;5009659;28;20034;-87